Big Bear Station Historical Data
Daily Summary for August 31, 2017 Units:  English    Metric   Both
Next Day »
Daily Weekly Monthly Yearly Custom
  High: Low: Average:
Temperature: 81.1 °F 53.2 °F 63.7 °F
Dew Point: 55.4 °F 45.3 °F 51.2 °F
Humidity: 96% 33% 68%
Wind Speed: 5.8mph 0.0mph 1mph
Wind Gust: -999.0mph - -
Wind- - SSW
Pressure: 30.32 in 30.23 in -
Precipitation: 0.05 in    
Historical Graphs
 
 
Tabular Data for August 31, 2017
Time Temperature Dew Point Pressure Wind Wind Speed Wind Gust Humidity Rainfall Rate (Hourly)
00:12 57.6 °F 55.3 °F 30.28 in Calm   -999.0 mph 92% 0 in
00:27 57.0 °F 55.0 °F 30.28 in South 1.7 mph -999.0 mph 93% 0 in
00:43 56.8 °F 54.8 °F 30.28 in Calm   -999.0 mph 93% 0 in
00:58 56.5 °F 54.5 °F 30.27 in Calm   -999.0 mph 93% 0 in
01:13 56.1 °F 54.4 °F 30.28 in South 1.7 mph -999.0 mph 94% 0 in
01:28 56.1 °F 54.4 °F 30.27 in Calm   -999.0 mph 94% 0 in
01:43 56.1 °F 54.4 °F 30.27 in Calm   -999.0 mph 94% 0 in
01:59 55.8 °F 54.1 °F 30.27 in Calm   -999.0 mph 94% 0 in
02:14 55.2 °F 53.5 °F 30.27 in South 2.7 mph -999.0 mph 94% 0 in
02:29 55.0 °F 53.3 °F 30.27 in Calm   -999.0 mph 94% 0 in
02:44 54.9 °F 53.2 °F 30.27 in Calm   -999.0 mph 94% 0 in
03:00 55.0 °F 53.3 °F 30.27 in Calm   -999.0 mph 94% 0 in
03:15 54.9 °F 53.2 °F 30.27 in Calm   -999.0 mph 94% 0 in
03:30 54.1 °F 52.4 °F 30.27 in South 2.2 mph -999.0 mph 94% 0 in
03:45 54.1 °F 52.7 °F 30.26 in Calm   -999.0 mph 95% 0 in
04:00 53.8 °F 52.4 °F 30.26 in Calm   -999.0 mph 95% 0 in
04:16 53.8 °F 52.4 °F 30.26 in Calm   -999.0 mph 95% 0 in
04:31 53.4 °F 52.0 °F 30.26 in Calm   -999.0 mph 95% 0 in
04:46 53.2 °F 51.8 °F 30.27 in Calm   -999.0 mph 95% 0 in
05:01 53.2 °F 51.5 °F 30.27 in Calm   -999.0 mph 94% 0 in
05:16 53.8 °F 52.4 °F 30.27 in Calm   -999.0 mph 95% 0 in
05:32 54.7 °F 53.6 °F 30.27 in SSE 1.7 mph -999.0 mph 96% 0 in
05:47 55.4 °F 53.4 °F 30.27 in South 2.7 mph -999.0 mph 93% 0 in
06:02 55.0 °F 53.0 °F 30.27 in Calm   -999.0 mph 93% 0 in
06:17 55.2 °F 52.9 °F 30.28 in South 3.2 mph -999.0 mph 92% 0 in
06:33 55.4 °F 53.1 °F 30.28 in West 2.2 mph -999.0 mph 92% 0 in
06:48 56.7 °F 51.9 °F 30.28 in Calm   -999.0 mph 84% 0 in
07:03 57.4 °F 51.6 °F 30.29 in ENE 1.7 mph -999.0 mph 81% 0 in
07:18 58.3 °F 51.5 °F 30.29 in ESE 1.7 mph -999.0 mph 78% 0 in
07:34 57.2 °F 53.1 °F 30.30 in ESE 1.7 mph -999.0 mph 86% 0 in
07:49 57.0 °F 52.5 °F 30.30 in ESE 1.1 mph -999.0 mph 85% 0 in
08:04 56.8 °F 53.0 °F 30.30 in Calm   -999.0 mph 87% 0 in
08:19 57.2 °F 53.1 °F 30.31 in South 3.2 mph -999.0 mph 86% 0 in
08:35 57.9 °F 52.1 °F 30.32 in South 2.2 mph -999.0 mph 81% 0 in
08:51 57.0 °F 52.5 °F 30.32 in Calm   -999.0 mph 85% 0 in
09:06 56.1 °F 52.9 °F 30.32 in Calm   -999.0 mph 89% 0 in
09:21 57.7 °F 54.5 °F 30.31 in Calm   -999.0 mph 89% 0 in
09:36 60.4 °F 54.2 °F 30.30 in Calm   -999.0 mph 80% 0 in
09:52 63.1 °F 55.4 °F 30.30 in Calm   -999.0 mph 76% 0 in
10:07 65.1 °F 53.5 °F 30.29 in East 1.7 mph -999.0 mph 66% 0 in
10:22 67.1 °F 54.1 °F 30.30 in Calm   -999.0 mph 63% 0 in
10:37 71.4 °F 53.9 °F 30.29 in Calm   -999.0 mph 54% 0 in
10:52 73.9 °F 52.4 °F 30.29 in North 1.7 mph -999.0 mph 47% 0 in
11:08 75.7 °F 52.2 °F 30.28 in ENE 1.1 mph -999.0 mph 44% 0 in
11:23 77.9 °F 51.6 °F 30.28 in NW 4.7 mph -999.0 mph 40% 0 in
11:38 78.3 °F 50.6 °F 30.28 in West 2.7 mph -999.0 mph 38% 0 in
11:54 79.5 °F 51.0 °F 30.28 in North 4.7 mph -999.0 mph 37% 0 in
12:09 80.6 °F 51.2 °F 30.27 in NNE 2.2 mph -999.0 mph 36% 0 in
12:24 81.1 °F 51.6 °F 30.27 in NNW 4.2 mph -999.0 mph 36% 0 in
12:39 79.5 °F 51.0 °F 30.27 in NNW 2.2 mph -999.0 mph 37% 0 in
12:54 81.1 °F 49.3 °F 30.27 in Calm   -999.0 mph 33% 0 in
13:10 78.8 °F 49.6 °F 30.27 in SW 3.7 mph -999.0 mph 36% 0 in
13:25 75.2 °F 48.5 °F 30.27 in SSE 2.7 mph -999.0 mph 39% 0 in
13:40 73.8 °F 48.6 °F 30.27 in Calm   -999.0 mph 41% 0 in
13:55 73.2 °F 50.0 °F 30.26 in Calm   -999.0 mph 44% 0 in
14:11 72.0 °F 47.0 °F 30.26 in SW 1.1 mph -999.0 mph 41% 0 in
14:26 71.2 °F 53.7 °F 30.25 in South 1.7 mph -999.0 mph 54% 0 in
14:41 72.9 °F 53.7 °F 30.25 in NNW 2.7 mph -999.0 mph 51% 0 in
14:56 76.1 °F 52.6 °F 30.24 in NW 3.7 mph -999.0 mph 44% 0 in
15:11 75.9 °F 51.2 °F 30.24 in Calm   -999.0 mph 42% 0 in
15:27 78.6 °F 48.7 °F 30.23 in South 4.2 mph -999.0 mph 35% 0 in
15:42 77.9 °F 48.8 °F 30.23 in SSE 5.8 mph -999.0 mph 36% 0 in
15:57 75.6 °F 46.8 °F 30.23 in SSW 3.2 mph -999.0 mph 36% 0 in
16:12 73.9 °F 46.0 °F 30.23 in ESE 1.7 mph -999.0 mph 37% 0 in
16:28 72.3 °F 45.3 °F 30.23 in ESE 3.2 mph -999.0 mph 38% 0 in
16:43 71.2 °F 45.6 °F 30.23 in Calm   -999.0 mph 40% 0 in
16:58 70.5 °F 46.9 °F 30.23 in South 2.7 mph -999.0 mph 43% 0 in
17:14 69.8 °F 46.3 °F 30.23 in SSW 1.7 mph -999.0 mph 43% 0 in
17:29 69.3 °F 47.1 °F 30.23 in Calm   -999.0 mph 45% 0 in
17:44 69.1 °F 48.6 °F 30.24 in Calm   -999.0 mph 48% 0 in
17:59 68.5 °F 48.6 °F 30.24 in Calm   -999.0 mph 49% 0 in
18:14 68.2 °F 49.4 °F 30.24 in Calm   -999.0 mph 51% 0 in
18:30 67.8 °F 50.0 °F 30.23 in Calm   -999.0 mph 53% 0 in
18:45 67.3 °F 49.1 °F 30.23 in Calm   -999.0 mph 52% 0 in
19:00 66.2 °F 49.6 °F 30.23 in Calm   -999.0 mph 55% 0 in
19:15 65.5 °F 49.4 °F 30.23 in Calm   -999.0 mph 56% 0 in
19:30 64.4 °F 49.3 °F 30.23 in Calm   -999.0 mph 58% 0 in
19:46 64.0 °F 49.4 °F 30.24 in Calm   -999.0 mph 59% 0 in
20:01 63.5 °F 49.4 °F 30.24 in Calm   -999.0 mph 60% 0 in
20:47 61.5 °F 50.0 °F 30.26 in South 1.7 mph -999.0 mph 66% 0 in
21:02 61.0 °F 49.2 °F 30.26 in Calm   -999.0 mph 65% 0 in
21:17 60.1 °F 49.5 °F 30.26 in Calm   -999.0 mph 68% 0 in
21:32 59.9 °F 48.9 °F 30.27 in Calm   -999.0 mph 67% 0 in
21:47 59.7 °F 49.1 °F 30.27 in Calm   -999.0 mph 68% 0 in
22:03 59.4 °F 49.6 °F 30.27 in Calm   -999.0 mph 70% 0 in
22:18 59.2 °F 50.6 °F 30.27 in Calm   -999.0 mph 73% 0 in
22:33 58.8 °F 50.2 °F 30.27 in Calm   -999.0 mph 73% 0 in
22:48 58.6 °F 49.2 °F 30.28 in Calm   -999.0 mph 71% 0 in
23:03 58.5 °F 48.4 °F 30.28 in Calm   -999.0 mph 69% 0 in
23:19 58.1 °F 48.0 °F 30.28 in Calm   -999.0 mph 69% 0 in
23:34 57.9 °F 49.3 °F 30.28 in Calm   -999.0 mph 73% 0 in
23:49 57.6 °F 50.1 °F 30.28 in Calm   -999.0 mph 76% 0 in
Big Bear CA Weather